sensor_id;sensor_type;location;lat;lon;timestamp;pressure;altitude;pressure_sealevel;temperature;humidity
75794;BME280;64418;47.536;19.074;2023-03-31T00:01:30;99940.81;;;8.66;100.00
75794;BME280;64418;47.536;19.074;2023-03-31T00:03:56;99943.72;;;8.64;100.00
75794;BME280;64418;47.536;19.074;2023-03-31T00:06:22;99933.31;;;8.61;100.00
75794;BME280;64418;47.536;19.074;2023-03-31T00:08:48;99936.03;;;8.61;100.00
75794;BME280;64418;47.536;19.074;2023-03-31T00:11:13;99934.16;;;8.62;100.00
75794;BME280;64418;47.536;19.074;2023-03-31T00:13:41;99934.56;;;8.65;100.00
75794;BME280;64418;47.536;19.074;2023-03-31T00:16:08;99935.00;;;8.69;100.00
75794;BME280;64418;47.536;19.074;2023-03-31T00:18:35;99930.47;;;8.76;100.00
75794;BME280;64418;47.536;19.074;2023-03-31T00:21:09;99920.28;;;8.78;100.00
75794;BME280;64418;47.536;19.074;2023-03-31T00:23:34;99924.84;;;8.78;100.00
75794;BME280;64418;47.536;19.074;2023-03-31T00:26:00;99919.22;;;8.73;100.00
75794;BME280;64418;47.536;19.074;2023-03-31T00:28:26;99916.31;;;8.67;100.00
75794;BME280;64418;47.536;19.074;2023-03-31T00:30:59;99914.66;;;8.60;100.00
75794;BME280;64418;47.536;19.074;2023-03-31T00:33:24;99910.03;;;8.47;100.00
75794;BME280;64418;47.536;19.074;2023-03-31T00:35:51;99920.81;;;8.41;100.00
75794;BME280;64418;47.536;19.074;2023-03-31T00:38:16;99914.59;;;8.40;100.00
75794;BME280;64418;47.536;19.074;2023-03-31T00:40:45;99916.25;;;8.41;100.00
75794;BME280;64418;47.536;19.074;2023-03-31T00:43:23;99903.38;;;8.43;100.00
75794;BME280;64418;47.536;19.074;2023-03-31T00:45:51;99904.81;;;8.39;100.00
75794;BME280;64418;47.536;19.074;2023-03-31T00:48:19;99913.75;;;8.40;100.00
75794;BME280;64418;47.536;19.074;2023-03-31T00:50:48;99905.00;;;8.31;100.00
75794;BME280;64418;47.536;19.074;2023-03-31T00:53:16;99896.75;;;8.52;100.00
75794;BME280;64418;47.536;19.074;2023-03-31T00:55:46;99897.22;;;8.89;100.00
75794;BME280;64418;47.536;19.074;2023-03-31T00:58:14;99903.03;;;8.99;100.00
75794;BME280;64418;47.536;19.074;2023-03-31T01:00:41;99892.44;;;8.91;100.00
75794;BME280;64418;47.536;19.074;2023-03-31T01:03:08;99899.91;;;8.76;100.00
75794;BME280;64418;47.536;19.074;2023-03-31T01:05:41;99892.22;;;8.73;100.00
75794;BME280;64418;47.536;19.074;2023-03-31T01:08:09;99900.91;;;8.61;100.00
75794;BME280;64418;47.536;19.074;2023-03-31T01:10:38;99886.81;;;8.59;100.00
75794;BME280;64418;47.536;19.074;2023-03-31T01:13:05;99884.28;;;8.45;100.00
75794;BME280;64418;47.536;19.074;2023-03-31T01:15:31;99880.34;;;8.34;100.00
75794;BME280;64418;47.536;19.074;2023-03-31T01:17:57;99883.03;;;8.47;100.00
75794;BME280;64418;47.536;19.074;2023-03-31T01:20:32;99878.06;;;8.44;100.00
75794;BME280;64418;47.536;19.074;2023-03-31T01:26:40;99876.38;;;8.43;100.00
75794;BME280;64418;47.536;19.074;2023-03-31T01:29:24;99880.13;;;8.42;100.00
75794;BME280;64418;47.536;19.074;2023-03-31T01:32:31;99892.38;;;8.38;100.00
75794;BME280;64418;47.536;19.074;2023-03-31T01:35:39;99886.34;;;8.30;100.00
75794;BME280;64418;47.536;19.074;2023-03-31T01:38:36;99884.28;;;8.38;100.00
75794;BME280;64418;47.536;19.074;2023-03-31T01:41:24;99884.91;;;8.40;100.00
75794;BME280;64418;47.536;19.074;2023-03-31T01:43:57;99883.66;;;8.43;100.00
75794;BME280;64418;47.536;19.074;2023-03-31T01:46:30;99893.44;;;8.50;100.00
75794;BME280;64418;47.536;19.074;2023-03-31T01:49:04;99895.28;;;8.43;100.00
75794;BME280;64418;47.536;19.074;2023-03-31T01:51:34;99887.63;;;8.53;100.00
75794;BME280;64418;47.536;19.074;2023-03-31T01:54:04;99883.47;;;8.44;100.00
75794;BME280;64418;47.536;19.074;2023-03-31T01:56:36;99891.78;;;8.69;100.00
75794;BME280;64418;47.536;19.074;2023-03-31T01:59:09;99891.19;;;8.60;100.00
75794;BME280;64418;47.536;19.074;2023-03-31T02:01:38;99896.34;;;8.62;100.00
75794;BME280;64418;47.536;19.074;2023-03-31T02:04:09;99893.47;;;8.77;100.00
75794;BME280;64418;47.536;19.074;2023-03-31T02:06:39;99893.03;;;8.73;100.00
75794;BME280;64418;47.536;19.074;2023-03-31T02:09:09;99891.81;;;8.76;99.92
75794;BME280;64418;47.536;19.074;2023-03-31T02:11:38;99893.06;;;8.80;99.22
75794;BME280;64418;47.536;19.074;2023-03-31T02:14:09;99883.06;;;8.80;98.89
75794;BME280;64418;47.536;19.074;2023-03-31T02:16:39;99894.91;;;8.73;99.01
75794;BME280;64418;47.536;19.074;2023-03-31T02:19:09;99891.38;;;8.65;99.07
75794;BME280;64418;47.536;19.074;2023-03-31T02:21:37;99890.34;;;8.66;98.53
75794;BME280;64418;47.536;19.074;2023-03-31T02:24:06;99887.22;;;8.56;99.26
75794;BME280;64418;47.536;19.074;2023-03-31T02:26:38;99888.88;;;8.57;99.02
75794;BME280;64418;47.536;19.074;2023-03-31T02:29:06;99882.25;;;8.66;98.65
75794;BME280;64418;47.536;19.074;2023-03-31T02:31:39;99885.13;;;8.58;98.63
75794;BME280;64418;47.536;19.074;2023-03-31T02:34:06;99879.72;;;8.45;98.53
75794;BME280;64418;47.536;19.074;2023-03-31T02:36:33;99880.94;;;8.36;98.84
75794;BME280;64418;47.536;19.074;2023-03-31T02:39:04;99885.09;;;8.32;98.71
75794;BME280;64418;47.536;19.074;2023-03-31T02:41:31;99872.16;;;8.21;99.14
75794;BME280;64418;47.536;19.074;2023-03-31T02:43:59;99881.97;;;8.35;98.57
75794;BME280;64418;47.536;19.074;2023-03-31T02:46:25;99872.44;;;8.39;98.07
75794;BME280;64418;47.536;19.074;2023-03-31T02:48:53;99870.31;;;8.28;97.72
75794;BME280;64418;47.536;19.074;2023-03-31T02:54:49;99863.91;;;8.42;97.95
75794;BME280;64418;47.536;19.074;2023-03-31T02:57:37;99867.00;;;8.26;98.17
75794;BME280;64418;47.536;19.074;2023-03-31T03:00:18;99865.78;;;8.35;97.69
75794;BME280;64418;47.536;19.074;2023-03-31T03:02:59;99867.41;;;8.23;97.80
75794;BME280;64418;47.536;19.074;2023-03-31T03:05:36;99859.50;;;8.15;98.16
75794;BME280;64418;47.536;19.074;2023-03-31T03:08:17;99857.63;;;8.15;98.14
75794;BME280;64418;47.536;19.074;2023-03-31T03:10:58;99863.91;;;8.29;98.01
75794;BME280;64418;47.536;19.074;2023-03-31T03:13:31;99869.34;;;8.49;96.62
75794;BME280;64418;47.536;19.074;2023-03-31T03:16:04;99873.69;;;8.30;96.99
75794;BME280;64418;47.536;19.074;2023-03-31T03:18:31;99863.31;;;8.40;96.61
75794;BME280;64418;47.536;19.074;2023-03-31T03:20:57;99859.34;;;8.36;96.37
75794;BME280;64418;47.536;19.074;2023-03-31T03:23:23;99866.41;;;8.31;96.21
75794;BME280;64418;47.536;19.074;2023-03-31T03:25:49;99860.38;;;8.35;96.58
75794;BME280;64418;47.536;19.074;2023-03-31T03:28:15;99863.72;;;8.37;96.09
75794;BME280;64418;47.536;19.074;2023-03-31T03:30:41;99861.78;;;8.24;96.42
75794;BME280;64418;47.536;19.074;2023-03-31T03:33:09;99867.69;;;8.41;96.29
75794;BME280;64418;47.536;19.074;2023-03-31T03:35:35;99862.28;;;8.41;96.12
75794;BME280;64418;47.536;19.074;2023-03-31T03:38:02;99860.19;;;8.30;96.22
75794;BME280;64418;47.536;19.074;2023-03-31T03:40:28;99863.63;;;8.17;96.71
75794;BME280;64418;47.536;19.074;2023-03-31T03:42:54;99873.41;;;8.12;97.00
75794;BME280;64418;47.536;19.074;2023-03-31T03:45:19;99859.25;;;8.10;97.15
75794;BME280;64418;47.536;19.074;2023-03-31T03:47:45;99871.66;;;7.98;97.64
75794;BME280;64418;47.536;19.074;2023-03-31T03:50:13;99872.97;;;8.15;97.20
75794;BME280;64418;47.536;19.074;2023-03-31T03:52:39;99869.63;;;8.00;97.43
75794;BME280;64418;47.536;19.074;2023-03-31T03:55:05;99869.19;;;7.96;97.42
75794;BME280;64418;47.536;19.074;2023-03-31T03:57:31;99869.38;;;7.95;98.12
75794;BME280;64418;47.536;19.074;2023-03-31T03:59:57;99879.94;;;7.90;97.81
75794;BME280;64418;47.536;19.074;2023-03-31T04:02:23;99882.00;;;7.81;97.97
75794;BME280;64418;47.536;19.074;2023-03-31T04:04:49;99880.88;;;7.69;98.93
75794;BME280;64418;47.536;19.074;2023-03-31T04:07:16;99879.22;;;7.68;98.42
75794;BME280;64418;47.536;19.074;2023-03-31T04:09:42;99879.78;;;7.57;98.41
75794;BME280;64418;47.536;19.074;2023-03-31T04:12:08;99883.06;;;7.52;98.83
75794;BME280;64418;47.536;19.074;2023-03-31T04:14:34;99877.84;;;7.44;99.09
75794;BME280;64418;47.536;19.074;2023-03-31T04:17:00;99872.44;;;7.44;99.30
75794;BME280;64418;47.536;19.074;2023-03-31T04:19:26;99859.88;;;7.51;99.21
75794;BME280;64418;47.536;19.074;2023-03-31T04:21:52;99867.06;;;7.44;98.92
75794;BME280;64418;47.536;19.074;2023-03-31T04:24:20;99868.47;;;7.40;99.19
75794;BME280;64418;47.536;19.074;2023-03-31T04:26:46;99863.09;;;7.40;99.14
75794;BME280;64418;47.536;19.074;2023-03-31T04:29:14;99857.81;;;7.60;98.79
75794;BME280;64418;47.536;19.074;2023-03-31T04:31:40;99862.88;;;7.76;98.13
75794;BME280;64418;47.536;19.074;2023-03-31T04:34:06;99873.84;;;7.74;97.87
75794;BME280;64418;47.536;19.074;2023-03-31T04:36:32;99864.06;;;7.67;98.16
75794;BME280;64418;47.536;19.074;2023-03-31T04:38:59;99860.06;;;7.56;98.32
75794;BME280;64418;47.536;19.074;2023-03-31T04:41:27;99855.34;;;7.58;98.33
75794;BME280;64418;47.536;19.074;2023-03-31T04:43:53;99859.06;;;7.57;98.47
75794;BME280;64418;47.536;19.074;2023-03-31T04:46:20;99852.00;;;7.56;98.39
75794;BME280;64418;47.536;19.074;2023-03-31T04:48:47;99845.94;;;7.89;97.51
75794;BME280;64418;47.536;19.074;2023-03-31T04:51:14;99849.47;;;7.96;97.28
75794;BME280;64418;47.536;19.074;2023-03-31T04:53:41;99848.44;;;7.97;97.10
75794;BME280;64418;47.536;19.074;2023-03-31T04:56:07;99853.03;;;8.03;96.88
75794;BME280;64418;47.536;19.074;2023-03-31T04:58:35;99850.56;;;8.08;96.37
75794;BME280;64418;47.536;19.074;2023-03-31T05:01:01;99857.63;;;8.22;96.44
75794;BME280;64418;47.536;19.074;2023-03-31T05:03:28;99847.66;;;8.16;96.08
75794;BME280;64418;47.536;19.074;2023-03-31T05:05:54;99848.09;;;8.26;95.64
75794;BME280;64418;47.536;19.074;2023-03-31T05:08:21;99847.94;;;8.34;94.99
75794;BME280;64418;47.536;19.074;2023-03-31T05:10:46;99842.31;;;8.29;94.85
75794;BME280;64418;47.536;19.074;2023-03-31T05:13:13;99837.75;;;8.30;94.95
75794;BME280;64418;47.536;19.074;2023-03-31T05:15:40;99837.16;;;8.34;94.69
75794;BME280;64418;47.536;19.074;2023-03-31T05:18:06;99834.66;;;8.39;93.92
75794;BME280;64418;47.536;19.074;2023-03-31T05:20:32;99833.44;;;8.42;94.36
75794;BME280;64418;47.536;19.074;2023-03-31T05:22:58;99837.78;;;8.49;93.73
75794;BME280;64418;47.536;19.074;2023-03-31T05:25:25;99836.53;;;8.58;93.05
75794;BME280;64418;47.536;19.074;2023-03-31T05:27:51;99827.63;;;8.64;93.09
75794;BME280;64418;47.536;19.074;2023-03-31T05:30:18;99829.06;;;8.74;92.78
75794;BME280;64418;47.536;19.074;2023-03-31T05:32:46;99832.38;;;8.89;91.66
75794;BME280;64418;47.536;19.074;2023-03-31T05:35:12;99821.97;;;8.99;91.91
75794;BME280;64418;47.536;19.074;2023-03-31T05:37:40;99836.50;;;9.11;91.58
75794;BME280;64418;47.536;19.074;2023-03-31T05:40:08;99831.69;;;9.26;90.02
75794;BME280;64418;47.536;19.074;2023-03-31T05:42:34;99843.09;;;9.41;89.83
75794;BME280;64418;47.536;19.074;2023-03-31T05:45:00;99840.97;;;9.56;89.27
75794;BME280;64418;47.536;19.074;2023-03-31T05:47:26;99837.38;;;9.76;89.14
75794;BME280;64418;47.536;19.074;2023-03-31T05:49:57;99827.09;;;9.91;87.33
75794;BME280;64418;47.536;19.074;2023-03-31T05:52:24;99822.88;;;10.08;87.13
75794;BME280;64418;47.536;19.074;2023-03-31T05:54:50;99827.78;;;10.24;87.89
75794;BME280;64418;47.536;19.074;2023-03-31T05:57:16;99823.53;;;10.41;88.46
75794;BME280;64418;47.536;19.074;2023-03-31T05:59:43;99827.78;;;10.55;88.64
75794;BME280;64418;47.536;19.074;2023-03-31T06:02:12;99828.75;;;10.68;87.96
75794;BME280;64418;47.536;19.074;2023-03-31T06:04:38;99819.13;;;10.72;87.09
75794;BME280;64418;47.536;19.074;2023-03-31T06:07:05;99822.38;;;10.55;87.74
75794;BME280;64418;47.536;19.074;2023-03-31T06:09:31;99822.03;;;10.70;86.50
75794;BME280;64418;47.536;19.074;2023-03-31T06:11:57;99821.56;;;10.80;85.54
75794;BME280;64418;47.536;19.074;2023-03-31T06:14:23;99821.13;;;10.83;85.30
75794;BME280;64418;47.536;19.074;2023-03-31T06:16:51;99823.56;;;10.91;84.40
75794;BME280;64418;47.536;19.074;2023-03-31T06:19:17;99827.03;;;10.98;84.72
75794;BME280;64418;47.536;19.074;2023-03-31T06:21:44;99823.19;;;11.05;84.91
75794;BME280;64418;47.536;19.074;2023-03-31T06:24:13;99819.59;;;11.11;85.82
75794;BME280;64418;47.536;19.074;2023-03-31T06:26:40;99823.72;;;11.14;85.69
75794;BME280;64418;47.536;19.074;2023-03-31T06:29:06;99829.16;;;11.14;86.06
75794;BME280;64418;47.536;19.074;2023-03-31T06:31:32;99824.50;;;11.21;84.45
75794;BME280;64418;47.536;19.074;2023-03-31T06:33:59;99819.09;;;11.21;85.09
75794;BME280;64418;47.536;19.074;2023-03-31T06:36:25;99823.50;;;11.16;85.25
75794;BME280;64418;47.536;19.074;2023-03-31T06:38:53;99822.28;;;11.36;82.87
75794;BME280;64418;47.536;19.074;2023-03-31T06:41:21;99819.06;;;11.94;82.27
75794;BME280;64418;47.536;19.074;2023-03-31T06:43:47;99819.94;;;12.77;81.01
75794;BME280;64418;47.536;19.074;2023-03-31T06:46:14;99816.88;;;12.85;79.39
75794;BME280;64418;47.536;19.074;2023-03-31T06:48:40;99812.94;;;12.70;78.76
75794;BME280;64418;47.536;19.074;2023-03-31T06:51:06;99811.66;;;12.72;79.27
75794;BME280;64418;47.536;19.074;2023-03-31T06:53:33;99807.31;;;12.83;77.80
75794;BME280;64418;47.536;19.074;2023-03-31T06:56:00;99812.25;;;12.86;78.65
75794;BME280;64418;47.536;19.074;2023-03-31T06:58:27;99815.94;;;12.91;76.50
75794;BME280;64418;47.536;19.074;2023-03-31T07:00:53;99811.09;;;13.05;76.05
75794;BME280;64418;47.536;19.074;2023-03-31T07:03:19;99819.78;;;13.25;75.77
75794;BME280;64418;47.536;19.074;2023-03-31T07:05:47;99800.81;;;13.42;74.83
75794;BME280;64418;47.536;19.074;2023-03-31T07:08:13;99803.03;;;13.57;73.79
75794;BME280;64418;47.536;19.074;2023-03-31T07:10:39;99809.59;;;13.84;71.59
75794;BME280;64418;47.536;19.074;2023-03-31T07:13:05;99810.03;;;14.21;71.65
75794;BME280;64418;47.536;19.074;2023-03-31T07:15:32;99807.22;;;14.44;69.16
75794;BME280;64418;47.536;19.074;2023-03-31T07:17:58;99814.59;;;14.77;68.29
75794;BME280;64418;47.536;19.074;2023-03-31T07:20:24;99808.31;;;14.93;69.06
75794;BME280;64418;47.536;19.074;2023-03-31T07:22:50;99809.22;;;15.15;69.07
75794;BME280;64418;47.536;19.074;2023-03-31T07:25:17;99807.59;;;15.53;65.55
75794;BME280;64418;47.536;19.074;2023-03-31T07:27:43;99810.16;;;15.81;65.00
75794;BME280;64418;47.536;19.074;2023-03-31T07:30:12;99800.72;;;16.15;64.13
75794;BME280;64418;47.536;19.074;2023-03-31T07:32:40;99801.56;;;16.43;61.67
75794;BME280;64418;47.536;19.074;2023-03-31T07:35:10;99795.75;;;16.39;61.78
75794;BME280;64418;47.536;19.074;2023-03-31T07:37:36;99778.34;;;16.72;60.42
75794;BME280;64418;47.536;19.074;2023-03-31T07:40:04;99793.56;;;17.42;60.10
75794;BME280;64418;47.536;19.074;2023-03-31T07:42:30;99793.19;;;18.52;53.25
75794;BME280;64418;47.536;19.074;2023-03-31T07:44:56;99790.06;;;18.13;54.65
75794;BME280;64418;47.536;19.074;2023-03-31T07:47:22;99791.94;;;17.41;56.34
75794;BME280;64418;47.536;19.074;2023-03-31T07:49:49;99780.63;;;17.74;57.42
75794;BME280;64418;47.536;19.074;2023-03-31T07:52:16;99794.16;;;17.49;57.81
75794;BME280;64418;47.536;19.074;2023-03-31T07:54:42;99777.63;;;17.28;57.28
75794;BME280;64418;47.536;19.074;2023-03-31T07:57:08;99768.94;;;18.04;56.68
75794;BME280;64418;47.536;19.074;2023-03-31T07:59:35;99765.50;;;18.69;54.68
75794;BME280;64418;47.536;19.074;2023-03-31T08:02:01;99772.06;;;18.93;53.41
75794;BME280;64418;47.536;19.074;2023-03-31T08:04:27;99768.12;;;18.03;55.32
75794;BME280;64418;47.536;19.074;2023-03-31T08:06:55;99769.22;;;18.07;55.68
75794;BME280;64418;47.536;19.074;2023-03-31T08:09:22;99774.84;;;18.68;54.82
75794;BME280;64418;47.536;19.074;2023-03-31T08:11:48;99765.69;;;18.22;56.01
75794;BME280;64418;47.536;19.074;2023-03-31T08:14:15;99768.53;;;17.60;57.13
75794;BME280;64418;47.536;19.074;2023-03-31T08:16:42;99766.09;;;17.68;57.01
75794;BME280;64418;47.536;19.074;2023-03-31T08:19:11;99744.00;;;17.38;57.83
75794;BME280;64418;47.536;19.074;2023-03-31T08:21:37;99747.53;;;17.86;56.70
75794;BME280;64418;47.536;19.074;2023-03-31T08:24:04;99738.31;;;17.50;56.72
75794;BME280;64418;47.536;19.074;2023-03-31T08:26:30;99738.25;;;17.40;59.25
75794;BME280;64418;47.536;19.074;2023-03-31T08:28:57;99737.69;;;17.38;57.38
75794;BME280;64418;47.536;19.074;2023-03-31T08:31:23;99745.03;;;17.22;58.70
75794;BME280;64418;47.536;19.074;2023-03-31T08:33:49;99731.16;;;17.44;56.51
75794;BME280;64418;47.536;19.074;2023-03-31T08:36:15;99729.72;;;17.93;55.41
75794;BME280;64418;47.536;19.074;2023-03-31T08:38:42;99719.66;;;18.54;54.79
75794;BME280;64418;47.536;19.074;2023-03-31T08:41:22;99718.69;;;19.40;52.29
75794;BME280;64418;47.536;19.074;2023-03-31T08:43:54;99714.34;;;19.93;50.69
75794;BME280;64418;47.536;19.074;2023-03-31T08:46:22;99716.44;;;19.57;49.05
75794;BME280;64418;47.536;19.074;2023-03-31T08:48:51;99706.59;;;19.56;50.35
75794;BME280;64418;47.536;19.074;2023-03-31T08:51:22;99699.88;;;19.77;50.83
75794;BME280;64418;47.536;19.074;2023-03-31T08:53:54;99702.88;;;19.01;52.67
75794;BME280;64418;47.536;19.074;2023-03-31T08:56:25;99694.63;;;19.81;50.85
75794;BME280;64418;47.536;19.074;2023-03-31T08:58:52;99691.09;;;20.58;47.63
75794;BME280;64418;47.536;19.074;2023-03-31T09:01:24;99676.28;;;20.10;49.56
75794;BME280;64418;47.536;19.074;2023-03-31T09:04:11;99671.13;;;19.98;50.03
75794;BME280;64418;47.536;19.074;2023-03-31T09:06:41;99676.03;;;20.06;49.64
75794;BME280;64418;47.536;19.074;2023-03-31T09:09:12;99672.78;;;20.72;47.76
75794;BME280;64418;47.536;19.074;2023-03-31T09:11:46;99677.25;;;20.63;46.91
75794;BME280;64418;47.536;19.074;2023-03-31T09:14:30;99668.50;;;20.56;47.05
75794;BME280;64418;47.536;19.074;2023-03-31T09:17:09;99655.78;;;19.92;48.05
75794;BME280;64418;47.536;19.074;2023-03-31T09:19:38;99668.75;;;20.26;47.62
75794;BME280;64418;47.536;19.074;2023-03-31T09:22:12;99659.25;;;20.47;47.03
75794;BME280;64418;47.536;19.074;2023-03-31T09:24:46;99643.00;;;19.73;48.03
75794;BME280;64418;47.536;19.074;2023-03-31T09:27:16;99645.53;;;18.90;49.94
75794;BME280;64418;47.536;19.074;2023-03-31T09:29:48;99638.75;;;19.46;49.30
75794;BME280;64418;47.536;19.074;2023-03-31T09:32:18;99635.47;;;19.34;48.62
75794;BME280;64418;47.536;19.074;2023-03-31T09:34:46;99636.72;;;19.67;48.20
75794;BME280;64418;47.536;19.074;2023-03-31T09:37:12;99633.06;;;19.82;48.18
75794;BME280;64418;47.536;19.074;2023-03-31T09:39:39;99636.53;;;19.92;47.69
75794;BME280;64418;47.536;19.074;2023-03-31T09:42:08;99640.44;;;19.37;49.42
75794;BME280;64418;47.536;19.074;2023-03-31T09:44:38;99620.53;;;19.60;49.24
75794;BME280;64418;47.536;19.074;2023-03-31T09:47:08;99635.00;;;21.01;46.21
75794;BME280;64418;47.536;19.074;2023-03-31T09:49:37;99621.44;;;19.90;48.73
75794;BME280;64418;47.536;19.074;2023-03-31T09:52:06;99615.88;;;20.00;48.07
75794;BME280;64418;47.536;19.074;2023-03-31T09:54:39;99623.66;;;21.50;45.16
75794;BME280;64418;47.536;19.074;2023-03-31T09:57:14;99627.78;;;22.28;43.66
75794;BME280;64418;47.536;19.074;2023-03-31T09:59:42;99619.37;;;21.63;44.31
75794;BME280;64418;47.536;19.074;2023-03-31T10:02:24;99604.63;;;21.91;44.02
75794;BME280;64418;47.536;19.074;2023-03-31T10:04:53;99601.69;;;21.64;43.40
75794;BME280;64418;47.536;19.074;2023-03-31T10:07:20;99597.00;;;22.02;43.11
75794;BME280;64418;47.536;19.074;2023-03-31T10:09:47;99592.69;;;22.74;40.98
75794;BME280;64418;47.536;19.074;2023-03-31T10:12:16;99580.00;;;23.77;39.46
75794;BME280;64418;47.536;19.074;2023-03-31T10:14:47;99577.38;;;22.95;40.15
75794;BME280;64418;47.536;19.074;2023-03-31T10:17:15;99568.78;;;22.83;40.08
75794;BME280;64418;47.536;19.074;2023-03-31T10:19:47;99571.16;;;23.89;37.55
75794;BME280;64418;47.536;19.074;2023-03-31T10:22:16;99571.09;;;24.25;35.58
75794;BME280;64418;47.536;19.074;2023-03-31T10:24:51;99571.66;;;25.79;33.23
75794;BME280;64418;47.536;19.074;2023-03-31T10:27:21;99573.38;;;25.50;32.85
75794;BME280;64418;47.536;19.074;2023-03-31T10:29:52;99548.47;;;24.23;35.52
75794;BME280;64418;47.536;19.074;2023-03-31T10:32:24;99561.50;;;25.49;33.14
75794;BME280;64418;47.536;19.074;2023-03-31T10:34:52;99567.37;;;24.29;34.57
75794;BME280;64418;47.536;19.074;2023-03-31T10:37:21;99549.84;;;23.54;36.70
75794;BME280;64418;47.536;19.074;2023-03-31T10:39:55;99543.09;;;22.69;38.58
75794;BME280;64418;47.536;19.074;2023-03-31T10:42:22;99550.31;;;21.87;40.70
75794;BME280;64418;47.536;19.074;2023-03-31T10:44:49;99556.06;;;21.90;40.56
75794;BME280;64418;47.536;19.074;2023-03-31T10:47:19;99546.56;;;22.15;40.08
75794;BME280;64418;47.536;19.074;2023-03-31T10:49:48;99539.28;;;24.14;35.31
75794;BME280;64418;47.536;19.074;2023-03-31T10:52:18;99538.00;;;25.81;31.63
75794;BME280;64418;47.536;19.074;2023-03-31T10:54:48;99562.84;;;25.77;30.68
75794;BME280;64418;47.536;19.074;2023-03-31T10:57:16;99545.19;;;25.73;31.13
75794;BME280;64418;47.536;19.074;2023-03-31T10:59:54;99526.81;;;27.17;29.03
75794;BME280;64418;47.536;19.074;2023-03-31T11:05:24;99529.03;;;25.58;31.85
75794;BME280;64418;47.536;19.074;2023-03-31T11:08:04;99517.66;;;23.71;35.51
75794;BME280;64418;47.536;19.074;2023-03-31T11:10:51;99520.87;;;25.70;31.62
75794;BME280;64418;47.536;19.074;2023-03-31T11:13:23;99521.56;;;26.48;30.63
75794;BME280;64418;47.536;19.074;2023-03-31T11:15:56;99517.78;;;25.55;32.59
75794;BME280;64418;47.536;19.074;2023-03-31T11:18:35;99514.72;;;23.18;37.27
75794;BME280;64418;47.536;19.074;2023-03-31T11:21:14;99520.56;;;22.35;39.08
75794;BME280;64418;47.536;19.074;2023-03-31T11:23:49;99508.16;;;21.86;40.13
75794;BME280;64418;47.536;19.074;2023-03-31T11:26:22;99500.91;;;21.90;40.16
75794;BME280;64418;47.536;19.074;2023-03-31T11:29:02;99491.53;;;23.41;36.89
75794;BME280;64418;47.536;19.074;2023-03-31T11:31:40;99488.16;;;23.89;36.02
75794;BME280;64418;47.536;19.074;2023-03-31T11:34:27;99481.53;;;25.42;31.92
75794;BME280;64418;47.536;19.074;2023-03-31T11:37:18;99471.06;;;25.05;32.10
75794;BME280;64418;47.536;19.074;2023-03-31T11:39:56;99449.94;;;24.78;32.39
75794;BME280;64418;47.536;19.074;2023-03-31T11:42:28;99442.00;;;24.07;33.70
75794;BME280;64418;47.536;19.074;2023-03-31T11:45:02;99422.63;;;22.73;36.08
75794;BME280;64418;47.536;19.074;2023-03-31T11:47:33;99420.41;;;21.88;38.15
75794;BME280;64418;47.536;19.074;2023-03-31T11:50:08;99415.41;;;21.44;39.40
75794;BME280;64418;47.536;19.074;2023-03-31T11:52:39;99403.28;;;20.89;41.12
75794;BME280;64418;47.536;19.074;2023-03-31T11:55:11;99400.72;;;23.57;36.32
75794;BME280;64418;47.536;19.074;2023-03-31T11:57:41;99408.88;;;26.30;31.51
75794;BME280;64418;47.536;19.074;2023-03-31T12:00:14;99404.56;;;27.00;30.35
75794;BME280;64418;47.536;19.074;2023-03-31T12:02:46;99400.63;;;27.01;30.33
75794;BME280;64418;47.536;19.074;2023-03-31T12:05:17;99401.72;;;23.61;35.96
75794;BME280;64418;47.536;19.074;2023-03-31T12:07:49;99384.94;;;23.58;36.74
75794;BME280;64418;47.536;19.074;2023-03-31T12:10:21;99386.66;;;24.07;35.26
75794;BME280;64418;47.536;19.074;2023-03-31T12:12:51;99368.69;;;23.34;36.12
75794;BME280;64418;47.536;19.074;2023-03-31T12:15:23;99361.81;;;22.24;39.18
75794;BME280;64418;47.536;19.074;2023-03-31T12:17:56;99374.06;;;22.04;39.94
75794;BME280;64418;47.536;19.074;2023-03-31T12:20:29;99384.09;;;21.22;40.32
75794;BME280;64418;47.536;19.074;2023-03-31T12:22:58;99360.97;;;21.82;38.95
75794;BME280;64418;47.536;19.074;2023-03-31T12:25:34;99357.50;;;22.04;38.86
75794;BME280;64418;47.536;19.074;2023-03-31T12:28:04;99356.28;;;22.24;38.63
75794;BME280;64418;47.536;19.074;2023-03-31T12:30:32;99356.91;;;21.93;39.62
75794;BME280;64418;47.536;19.074;2023-03-31T12:33:03;99344.72;;;21.35;41.22
75794;BME280;64418;47.536;19.074;2023-03-31T12:35:42;99350.63;;;21.28;40.64
75794;BME280;64418;47.536;19.074;2023-03-31T12:38:23;99344.78;;;21.48;40.91
75794;BME280;64418;47.536;19.074;2023-03-31T12:41:00;99348.50;;;21.71;40.63
75794;BME280;64418;47.536;19.074;2023-03-31T12:43:44;99353.19;;;24.17;36.16
75794;BME280;64418;47.536;19.074;2023-03-31T12:46:23;99335.91;;;28.63;27.84
75794;BME280;64418;47.536;19.074;2023-03-31T12:49:09;99333.66;;;29.33;26.69
75794;BME280;64418;47.536;19.074;2023-03-31T12:52:00;99318.25;;;25.32;31.98
75794;BME280;64418;47.536;19.074;2023-03-31T12:54:42;99329.13;;;27.22;29.66
75794;BME280;64418;47.536;19.074;2023-03-31T12:57:13;99320.31;;;29.85;26.14
75794;BME280;64418;47.536;19.074;2023-03-31T12:59:40;99312.34;;;30.34;25.03
75794;BME280;64418;47.536;19.074;2023-03-31T13:02:30;99307.19;;;29.42;25.82
75794;BME280;64418;47.536;19.074;2023-03-31T13:04:57;99314.31;;;30.84;24.10
75794;BME280;64418;47.536;19.074;2023-03-31T13:07:41;99315.69;;;29.46;25.87
75794;BME280;64418;47.536;19.074;2023-03-31T13:10:30;99314.91;;;25.65;31.71
75794;BME280;64418;47.536;19.074;2023-03-31T13:13:00;99298.41;;;23.35;36.26
75794;BME280;64418;47.536;19.074;2023-03-31T13:15:27;99282.63;;;21.97;39.56
75794;BME280;64418;47.536;19.074;2023-03-31T13:17:57;99293.06;;;22.49;38.32